Terminal Aerodrome Forecast
Issued by NWS Grand Rapids, MI

Home | Current Version | Previous Version | Text Only | Print | Product List | Glossary On
Versions: 1 2 3 4 5 6 7 8 9 10 11 12 13 14 15 16 17 18 19 20 21 22 23
000
FTUS43 KGRR 200200 AAA
TAFGRR
TAF AMD
KGRR 200229Z 2002/2024 VRB03KT P6SM SCT022
     FM200500 VRB03KT P6SM BKN025
     FM201200 VRB02KT P6SM OVC010
     FM201800 20003KT P6SM OVC100=

USA.gov is the U.S. government's official web portal to all federal, state and local government web resources and services.